• Join FlightAware (Why Join?)
  • Login
  • US Flag 
12:16PM EDT


 

Airport Tracker/Info


-or-


 

Live Flight TrackerFlight Track Log ✈ N39PH ✈ 30-Apr-2013 ✈ KTEX - KAPA

Flight Track Log - Related Links

Times and Time Zones

All times are in EDT time to prevent confusion due to time zone crossing. See the N39PH flight status page for this flight to view local times or setup timezone preferences in your user account.

Time Position Orientation Groundspeed Altitude Reporting Facility
EDT Latitude Longitude Course Direction KTS MPH feet Rate Location/Type
12:30PM 37.9722 -107.8736 58° Northeast 200 230 14,800  Level Denver Center
12:31PM 38.0078 -107.8025 58° Northeast 209 241 16,700 1,500 Climbing Denver Center
12:32PM 38.0400 -107.7386 57° Northeast 220 253 18,000 1,320 Climbing Denver Center
12:33PM 38.0761 -107.6636 59° Northeast 223 257 19,500 1,260 Climbing Denver Center
12:35PM 38.1119 -107.5964 56° Northeast 221 254 20,900 1,200 Climbing Denver Center
12:36PM 38.1575 -107.5261 50° Northeast 228 262 22,300 900 Climbing Denver Center
12:37PM 38.1981 -107.4503 56° Northeast 231 266 22,800 360 Climbing Denver Center
12:38PM 38.2344 -107.3853 55° Northeast 236 272 23,100 120 Climbing Denver Center
12:39PM 38.2850 -107.2956 54° Northeast 275 316 23,100  Level Denver Center
12:40PM 38.3311 -107.2175 53° Northeast 286 329 23,100  Level Denver Center
12:41PM 38.3836 -107.1158 57° Northeast 297 342 23,100  Level Denver Center
12:42PM 38.4325 -107.0308 54° Northeast 297 342 23,100  Level Denver Center
12:43PM 38.4794 -106.9433 56° Northeast 297 342 23,100  Level Denver Center
12:44PM 38.5261 -106.8525 57° Northeast 304 350 23,100 -60 Level Denver Center
12:45PM 38.5750 -106.7642 55° Northeast 307 353 23,000  Descending Denver Center
12:46PM 38.6200 -106.6758 57° Northeast 299 344 23,100  Climbing Denver Center
12:47PM 38.6767 -106.5689 56° Northeast 302 348 23,000  Descending Denver Center
12:48PM 38.7258 -106.4794 55° Northeast 306 352 23,100  Climbing Denver Center
12:49PM 38.7719 -106.3892 57° Northeast 305 351 23,000 -60 Descending Denver Center
12:50PM 38.8194 -106.3003 56° Northeast 303 349 23,000  Level Denver Center
12:51PM 38.8661 -106.2125 56° Northeast 301 346 23,000  Level Denver Center
12:52PM 38.9133 -106.1253 55° Northeast 298 343 23,100 -420 Climbing Denver Center
12:53PM 38.9692 -106.0133 57° Northeast 308 354 22,200 -540 Descending Denver Center
12:54PM 39.0189 -105.9211 55° Northeast 313 360 22,000 -1,080 Descending Denver Center
12:55PM 39.0664 -105.8289 56° Northeast 311 358 20,000 -1,500 Descending Denver Center
12:56PM 39.1164 -105.7361 55° Northeast 321 369 19,000 -1,320 Descending Denver Center
12:57PM 39.1611 -105.6486 57° Northeast 302 348 17,300 -1,200 Descending Denver Center
12:58PM 39.2025 -105.5667 57° Northeast 282 325 16,600 -840 Descending Denver Center
12:59PM 39.2506 -105.4767 55° Northeast 272 313 15,600 -780 Descending Denver Center
01:00PM 39.2911 -105.4003 56° Northeast 260 299 15,000 -420 Descending Denver Center
01:01PM 39.3311 -105.3197 57° Northeast 249 287 14,800 -600 Descending Denver Center
01:02PM 39.3686 -105.2456 57° Northeast 247 284 13,800 -1,020 Descending Denver Center
01:04PM 39.4114 -105.1669 55° Northeast 249 287 12,700 -1,200 Descending Denver Center
01:05PM 39.4458 -105.0958 58° Northeast 237 273 11,400 -1,440 Descending Denver Center
01:06PM 39.4836 -105.0197 57° Northeast 235 270 9,800 -1,320 Descending Denver Center
01:07PM 39.5064 -104.9464 68° East 215 247 8,700 -1,320 Descending Denver Center
01:08PM 39.5303 -104.8861 63° Northeast 178 205 7,100 -1,320 Descending Denver Center
01:09PM 39.5531 -104.8478 52° Northeast 145 167 6,000 -1,080 Descending Denver Center
01:11PM 39.5667 -104.8333 57° Northeast  Level FlightAware Approximate
01:18PM 39.5701 -104.8493 57° Northeast  Level Estimated
01:19PM 39.5701 -104.8493 57° Northeast  Level Estimated
01:20PM 39.5701 -104.8493 57° Northeast  Level Estimated